Time;durP1;ratioP1;P1;durP2;ratioP2;P2;SDS_P1;SDS_P2;PMS_P1;PMS_P2;Temp;Humidity;BMP_temperature;BMP_pressure;BME280_temperature;BME280_humidity;BME280_pressure;Samples;Min_cycle;Max_cycle;Signal;HPM_P1;HPM_P2
2021/06/03 00:01:58;;;;;;;3.83;1.63;;;21.00;64.00;;;;;;5103219;27;20581;-76
2021/06/03 00:04:24;;;;;;;2.92;1.90;;;21.10;64.00;;;;;;5121548;27;20053;-76
2021/06/03 00:06:50;;;;;;;2.58;1.45;;;21.00;64.10;;;;;;5110848;27;20027;-76
2021/06/03 00:09:16;;;;;;;2.78;1.70;;;20.90;64.20;;;;;;5116415;27;20030;-76
2021/06/03 00:11:41;;;;;;;2.38;1.70;;;21.00;64.40;;;;;;5109744;28;20053;-76
2021/06/03 00:14:08;;;;;;;1.77;1.50;;;20.90;64.70;;;;;;5104129;27;20031;-76
2021/06/03 00:16:34;;;;;;;3.80;1.90;;;20.90;64.70;;;;;;5120757;27;20050;-76
2021/06/03 00:19:06;;;;;;;2.58;1.50;;;20.90;64.70;;;;;;5112014;27;20070;-76
2021/06/03 00:21:32;;;;;;;3.25;1.45;;;21.00;65.10;;;;;;5083561;27;20444;-77
2021/06/03 00:23:58;;;;;;;2.13;1.42;;;21.00;64.90;;;;;;5106394;28;20480;-76
2021/06/03 00:26:24;;;;;;;2.47;1.65;;;21.00;64.90;;;;;;5106107;27;20038;-76
2021/06/03 00:28:49;;;;;;;2.67;1.45;;;21.00;65.70;;;;;;5099976;28;20118;-77
2021/06/03 00:31:15;;;;;;;1.88;1.63;;;21.00;65.00;;;;;;5096157;28;20037;-76
2021/06/03 00:33:42;;;;;;;3.03;1.65;;;20.90;65.20;;;;;;5109604;28;20022;-76
2021/06/03 00:36:09;;;;;;;2.30;1.70;;;20.90;65.40;;;;;;5103595;27;20027;-75
2021/06/03 00:38:35;;;;;;;3.75;1.60;;;20.90;65.60;;;;;;5101880;28;20062;-76
2021/06/03 00:41:01;;;;;;;2.08;1.67;;;20.90;65.70;;;;;;5111701;27;20459;-75
2021/06/03 00:43:27;;;;;;;3.55;1.75;;;20.90;65.70;;;;;;5116157;27;20026;-75
2021/06/03 00:45:53;;;;;;;2.25;1.48;;;20.90;66.30;;;;;;5107578;28;20031;-75
2021/06/03 00:48:19;;;;;;;2.67;1.80;;;20.90;65.70;;;;;;5123382;28;20035;-77
2021/06/03 00:50:48;;;;;;;2.63;1.50;;;20.90;65.90;;;;;;5100411;28;20023;-76
2021/06/03 00:53:14;;;;;;;2.10;1.50;;;20.90;65.90;;;;;;5110578;28;20456;-76
2021/06/03 00:55:44;;;;;;;1.75;1.65;;;20.90;65.90;;;;;;5100190;28;20039;-76
2021/06/03 00:58:10;;;;;;;2.35;1.70;;;20.90;65.80;;;;;;5123190;28;20031;-76
2021/06/03 01:00:36;;;;;;;2.55;1.73;;;20.90;66.10;;;;;;5112956;28;20026;-76
2021/06/03 01:03:02;;;;;;;3.15;1.58;;;20.90;66.30;;;;;;5111399;28;20055;-76
2021/06/03 01:05:41;;;;;;;1.73;1.35;;;20.80;66.40;;;;;;5116205;28;20027;-76
2021/06/03 01:08:12;;;;;;;2.08;1.70;;;20.90;66.70;;;;;;5105070;28;20024;-76
2021/06/03 01:10:56;;;;;;;2.67;1.90;;;20.80;66.60;;;;;;5108095;28;20101;-77
2021/06/03 01:13:58;;;;;;;2.60;1.50;;;20.80;66.90;;;;;;5097487;28;20072;-77
2021/06/03 01:16:25;;;;;;;2.22;1.70;;;20.80;67.50;;;;;;5102837;28;20100;-77
2021/06/03 01:18:53;;;;;;;2.33;1.60;;;20.70;67.30;;;;;;5110210;28;20031;-77
2021/06/03 01:21:31;;;;;;;2.20;1.80;;;20.70;67.50;;;;;;5097482;28;20384;-77
2021/06/03 01:24:19;;;;;;;2.40;1.77;;;20.70;67.60;;;;;;5106664;28;20043;-77
2021/06/03 01:26:45;;;;;;;6.75;1.92;;;20.60;67.80;;;;;;5109212;28;20035;-77
2021/06/03 01:29:15;;;;;;;2.42;1.60;;;20.70;67.90;;;;;;5114287;28;20032;-77
2021/06/03 01:31:41;;;;;;;2.00;1.50;;;20.70;67.60;;;;;;5100087;28;20019;-77
2021/06/03 01:34:08;;;;;;;2.40;1.98;;;20.70;67.90;;;;;;5104858;28;20100;-76
2021/06/03 01:36:35;;;;;;;3.42;1.42;;;20.70;67.90;;;;;;5110790;27;20027;-77
2021/06/03 01:39:01;;;;;;;5.28;2.05;;;20.60;68.00;;;;;;5101799;28;20503;-76
2021/06/03 01:41:27;;;;;;;2.83;1.83;;;20.60;68.40;;;;;;5114438;28;20024;-77
2021/06/03 01:43:53;;;;;;;2.88;1.60;;;20.60;68.50;;;;;;5123734;27;20114;-77
2021/06/03 01:46:18;;;;;;;2.47;1.83;;;20.50;68.70;;;;;;5106826;28;20043;-76
2021/06/03 01:48:44;;;;;;;2.80;1.60;;;20.50;69.00;;;;;;5112631;27;20023;-77
2021/06/03 01:51:12;;;;;;;5.55;1.83;;;20.50;68.90;;;;;;5126637;27;20038;-76
2021/06/03 01:53:39;;;;;;;2.28;1.70;;;20.50;69.10;;;;;;5124849;27;20102;-76
2021/06/03 01:56:10;;;;;;;2.75;1.92;;;20.50;69.00;;;;;;5109475;28;20070;-76
2021/06/03 01:58:36;;;;;;;2.78;1.60;;;20.50;69.00;;;;;;5111267;27;20027;-76
2021/06/03 02:01:03;;;;;;;3.75;1.90;;;20.50;69.20;;;;;;5101199;27;20020;-76
2021/06/03 02:03:28;;;;;;;2.85;1.92;;;20.50;69.20;;;;;;5113599;28;20180;-76
2021/06/03 02:05:55;;;;;;;4.60;1.50;;;20.50;69.60;;;;;;5123442;27;20473;-77
2021/06/03 02:08:22;;;;;;;2.33;1.83;;;20.40;69.70;;;;;;5124453;27;20026;-76
2021/06/03 02:10:48;;;;;;;2.90;2.17;;;20.40;69.70;;;;;;5130898;27;20464;-76
2021/06/03 02:13:25;;;;;;;2.85;1.92;;;20.40;70.00;;;;;;5118476;27;20118;-76
2021/06/03 02:16:25;;;;;;;2.35;2.00;;;20.40;70.20;;;;;;5129030;27;20027;-76
2021/06/03 02:18:56;;;;;;;2.28;1.85;;;20.30;70.60;;;;;;5109030;27;20475;-76
2021/06/03 02:21:23;;;;;;;5.40;2.67;;;20.30;70.40;;;;;;5118519;27;20042;-76
2021/06/03 02:23:49;;;;;;;3.40;2.13;;;20.30;70.60;;;;;;5128975;27;20280;-76
2021/06/03 02:26:16;;;;;;;3.08;2.10;;;20.30;70.70;;;;;;5107374;27;20376;-76
2021/06/03 02:28:43;;;;;;;3.47;2.47;;;20.20;71.00;;;;;;5121757;27;20107;-76
2021/06/03 02:31:09;;;;;;;3.20;2.10;;;20.20;71.20;;;;;;5115917;27;20090;-76
2021/06/03 02:33:35;;;;;;;3.03;2.10;;;20.20;71.50;;;;;;5112851;28;20026;-76
2021/06/03 02:36:01;;;;;;;5.28;2.40;;;20.20;71.90;;;;;;5105635;27;20027;-76
2021/06/03 02:38:30;;;;;;;3.30;2.20;;;20.10;72.10;;;;;;5104619;28;20032;-76
2021/06/03 02:40:59;;;;;;;3.30;2.33;;;20.00;72.30;;;;;;5113575;27;20436;-76
2021/06/03 02:43:26;;;;;;;3.63;2.10;;;20.00;72.70;;;;;;5099771;27;20042;-76
2021/06/03 02:45:52;;;;;;;4.13;2.45;;;20.00;73.20;;;;;;5110281;28;20034;-76
2021/06/03 02:48:17;;;;;;;4.18;2.30;;;19.90;73.30;;;;;;5106554;27;20114;-77
2021/06/03 02:50:43;;;;;;;3.00;2.35;;;19.90;74.10;;;;;;5121111;27;20020;-77
2021/06/03 02:53:11;;;;;;;2.55;2.28;;;19.90;73.60;;;;;;5112994;27;20030;-76
2021/06/03 02:55:37;;;;;;;3.00;2.47;;;19.80;73.60;;;;;;5120206;27;20034;-76
2021/06/03 02:58:03;;;;;;;3.80;2.40;;;19.80;73.90;;;;;;5108544;28;20031;-77
2021/06/03 03:00:32;;;;;;;4.68;2.38;;;19.80;73.90;;;;;;5114976;27;20043;-77
2021/06/03 03:02:59;;;;;;;4.70;2.40;;;19.80;74.10;;;;;;5131687;27;20024;-77
2021/06/03 03:05:25;;;;;;;3.97;2.03;;;19.80;74.40;;;;;;5099672;27;20023;-77
2021/06/03 03:07:51;;;;;;;5.68;2.05;;;19.80;74.40;;;;;;5109901;28;20019;-76
2021/06/03 03:10:31;;;;;;;3.75;2.00;;;19.80;74.20;;;;;;5124568;27;20034;-76
2021/06/03 03:12:58;;;;;;;2.60;2.35;;;19.80;74.70;;;;;;5118422;27;20055;-75
2021/06/03 03:15:24;;;;;;;2.90;2.20;;;19.70;74.60;;;;;;5112509;27;20024;-76
2021/06/03 03:17:50;;;;;;;2.97;2.22;;;19.80;74.60;;;;;;5103227;27;20106;-76
2021/06/03 03:20:18;;;;;;;4.25;2.25;;;19.80;74.80;;;;;;5123620;27;20024;-76
2021/06/03 03:22:45;;;;;;;3.05;2.40;;;19.80;74.70;;;;;;5110648;27;20030;-77
2021/06/03 03:25:12;;;;;;;2.75;2.40;;;19.80;74.80;;;;;;5117464;27;20055;-77
2021/06/03 03:27:39;;;;;;;3.20;2.35;;;19.80;75.10;;;;;;5111495;28;20023;-77
2021/06/03 03:30:06;;;;;;;3.58;2.60;;;19.80;75.00;;;;;;5114558;27;20032;-77
2021/06/03 03:32:32;;;;;;;3.13;2.25;;;19.70;75.20;;;;;;5108633;27;20053;-76
2021/06/03 03:35:01;;;;;;;2.95;2.35;;;19.70;75.40;;;;;;5099682;28;20062;-77
2021/06/03 03:37:28;;;;;;;6.03;2.67;;;19.80;75.40;;;;;;5082145;27;20224;-77
2021/06/03 03:39:55;;;;;;;2.58;2.20;;;19.70;75.30;;;;;;5109170;28;20384;-77
2021/06/03 03:42:21;;;;;;;4.25;2.70;;;19.70;75.50;;;;;;5106810;27;20027;-77
2021/06/03 03:44:47;;;;;;;3.35;2.30;;;19.70;75.50;;;;;;5101432;28;20493;-76
2021/06/03 03:47:12;;;;;;;4.65;2.53;;;19.70;75.50;;;;;;5130101;27;20041;-76
2021/06/03 03:49:38;;;;;;;3.45;2.60;;;19.70;75.60;;;;;;5119253;27;20055;-76
2021/06/03 03:52:05;;;;;;;3.90;2.78;;;19.70;75.70;;;;;;5107188;28;20031;-76
2021/06/03 03:54:30;;;;;;;3.95;2.80;;;19.70;75.70;;;;;;5107450;27;20031;-75
2021/06/03 03:56:56;;;;;;;3.72;2.30;;;19.70;75.80;;;;;;5099678;28;20473;-76
2021/06/03 03:59:23;;;;;;;3.22;2.50;;;19.80;75.80;;;;;;5129867;27;20094;-76
2021/06/03 04:01:52;;;;;;;5.57;2.80;;;19.70;75.70;;;;;;5101972;27;20091;-76
2021/06/03 04:04:19;;;;;;;4.35;2.60;;;19.70;75.80;;;;;;5122650;27;20023;-76
2021/06/03 04:06:45;;;;;;;3.55;2.53;;;19.70;76.70;;;;;;5109906;27;20031;-76
2021/06/03 04:09:10;;;;;;;5.10;3.03;;;19.60;76.20;;;;;;5098387;28;20460;-76
2021/06/03 04:11:36;;;;;;;3.15;2.40;;;19.60;76.40;;;;;;5110885;28;20050;-76
2021/06/03 04:14:01;;;;;;;3.70;2.78;;;19.60;76.50;;;;;;5104086;27;20027;-77
2021/06/03 04:16:27;;;;;;;4.10;2.53;;;19.50;76.80;;;;;;5102614;28;20396;-76
2021/06/03 04:18:53;;;;;;;5.90;2.75;;;19.50;76.90;;;;;;5129420;27;20065;-77
2021/06/03 04:21:19;;;;;;;4.70;2.42;;;19.50;77.80;;;;;;5116286;27;20087;-77
2021/06/03 04:23:45;;;;;;;4.68;2.65;;;19.50;77.20;;;;;;5108786;28;20134;-76
2021/06/03 04:26:11;;;;;;;4.05;2.85;;;19.50;76.90;;;;;;5104346;27;20031;-76
2021/06/03 04:28:37;;;;;;;5.45;3.00;;;19.50;77.10;;;;;;5101988;28;20043;-76
2021/06/03 04:31:03;;;;;;;5.82;3.20;;;19.50;77.40;;;;;;5113541;27;20133;-75
2021/06/03 04:33:29;;;;;;;3.75;3.00;;;19.40;77.30;;;;;;5110772;28;20126;-76
2021/06/03 04:35:55;;;;;;;5.60;3.15;;;19.50;78.20;;;;;;5102481;27;20545;-76
2021/06/03 04:38:20;;;;;;;4.15;2.80;;;19.50;77.50;;;;;;5103412;28;20101;-76
2021/06/03 04:40:46;;;;;;;6.30;2.90;;;19.50;77.60;;;;;;5109764;27;20042;-77
2021/06/03 04:43:12;;;;;;;4.00;3.13;;;19.40;77.60;;;;;;5097817;27;20020;-76
2021/06/03 04:45:38;;;;;;;4.55;2.95;;;19.40;77.70;;;;;;5109474;28;20383;-76
2021/06/03 04:48:08;;;;;;;4.05;3.05;;;19.40;78.20;;;;;;5103908;28;20019;-77
2021/06/03 04:50:36;;;;;;;5.40;3.00;;;19.40;78.00;;;;;;5102068;28;20100;-77
2021/06/03 04:53:02;;;;;;;5.15;3.30;;;19.40;77.90;;;;;;5111580;28;20031;-77
2021/06/03 04:55:29;;;;;;;5.75;2.97;;;19.40;78.10;;;;;;5098134;28;20056;-76
2021/06/03 04:57:56;;;;;;;4.57;2.65;;;19.40;77.90;;;;;;5107621;28;20066;-77
2021/06/03 05:00:34;;;;;;;5.00;3.45;;;19.50;78.00;;;;;;5094524;28;20027;-76
2021/06/03 05:03:01;;;;;;;5.72;3.20;;;19.40;78.20;;;;;;5129967;28;20023;-77
2021/06/03 05:05:27;;;;;;;5.35;3.22;;;19.40;78.20;;;;;;5099369;28;20454;-76
2021/06/03 05:07:54;;;;;;;5.30;3.47;;;19.30;78.60;;;;;;5126012;28;20460;-76
2021/06/03 05:10:20;;;;;;;5.47;3.70;;;19.20;79.10;;;;;;5105967;27;20156;-77
2021/06/03 05:12:46;;;;;;;6.13;3.13;;;19.20;79.10;;;;;;5104398;28;20028;-76
2021/06/03 05:15:14;;;;;;;4.18;3.50;;;19.20;79.20;;;;;;5133382;27;20023;-76
2021/06/03 05:17:40;;;;;;;4.15;3.00;;;19.20;79.60;;;;;;5104316;27;20026;-76
2021/06/03 05:20:09;;;;;;;4.22;3.20;;;19.20;80.10;;;;;;5109883;28;20074;-76
2021/06/03 05:22:36;;;;;;;5.20;3.80;;;19.20;79.60;;;;;;5111726;27;20099;-76
2021/06/03 05:25:03;;;;;;;4.32;3.33;;;19.20;79.60;;;;;;5119857;27;20456;-77
2021/06/03 05:27:29;;;;;;;6.00;3.42;;;19.30;79.80;;;;;;5114200;28;20030;-76
2021/06/03 05:29:55;;;;;;;4.43;3.40;;;19.30;79.80;;;;;;5098542;28;20023;-77
2021/06/03 05:32:20;;;;;;;5.32;3.40;;;19.30;79.80;;;;;;5127494;27;20066;-76
2021/06/03 05:34:46;;;;;;;5.72;3.55;;;19.30;80.60;;;;;;5103784;28;20376;-76
2021/06/03 05:37:12;;;;;;;7.35;3.50;;;19.30;79.80;;;;;;5114395;27;20463;-77
2021/06/03 05:39:37;;;;;;;4.53;3.20;;;19.40;79.80;;;;;;5103430;27;20031;-77
2021/06/03 05:42:03;;;;;;;8.77;3.58;;;19.40;79.40;;;;;;5128119;27;20042;-77
2021/06/03 05:44:29;;;;;;;6.28;3.70;;;19.50;79.20;;;;;;5127978;27;20083;-77
2021/06/03 05:46:55;;;;;;;5.03;3.55;;;19.50;79.20;;;;;;5120485;27;20027;-77
2021/06/03 05:49:21;;;;;;;5.13;3.60;;;19.50;78.90;;;;;;5132612;27;20525;-76
2021/06/03 05:51:46;;;;;;;5.28;3.50;;;19.60;79.00;;;;;;5122945;27;20030;-77
2021/06/03 05:54:12;;;;;;;4.40;3.25;;;19.60;78.50;;;;;;5107664;28;20028;-76
2021/06/03 05:56:39;;;;;;;6.15;3.50;;;19.60;78.50;;;;;;5111618;27;20467;-76
2021/06/03 05:59:05;;;;;;;3.88;3.20;;;19.60;78.70;;;;;;5100804;28;20027;-76
2021/06/03 06:01:31;;;;;;;5.40;3.38;;;19.60;78.60;;;;;;5100098;27;20054;-76
2021/06/03 06:06:29;;;;;;;6.65;3.22;;;19.60;78.10;;;;;;5121999;27;20028;-78
2021/06/03 06:08:57;;;;;;;5.68;3.30;;;19.70;78.20;;;;;;5125858;27;20023;-77
2021/06/03 06:11:24;;;;;;;4.93;3.17;;;19.80;77.90;;;;;;5126242;27;20026;-76
2021/06/03 06:13:50;;;;;;;3.70;3.10;;;19.80;77.80;;;;;;5107067;27;20020;-76
2021/06/03 06:16:17;;;;;;;5.97;4.05;;;19.90;77.60;;;;;;5106279;27;20030;-76
2021/06/03 06:18:43;;;;;;;12.18;7.80;;;20.00;77.60;;;;;;5108278;27;20023;-73
2021/06/03 06:21:10;;;;;;;33.05;20.60;;;20.10;76.70;;;;;;5109324;28;20110;-74
2021/06/03 06:23:38;;;;;;;14.63;8.40;;;20.10;76.20;;;;;;5129969;27;20495;-74
2021/06/03 06:26:05;;;;;;;10.18;5.88;;;20.10;76.10;;;;;;5105076;27;20031;-74
2021/06/03 06:28:32;;;;;;;23.45;14.90;;;20.20;75.60;;;;;;5110977;27;20031;-74
2021/06/03 06:30:58;;;;;;;16.77;9.68;;;20.20;75.70;;;;;;5099244;28;20023;-74
2021/06/03 06:33:24;;;;;;;19.75;11.75;;;20.20;75.40;;;;;;5111045;28;20027;-74
2021/06/03 06:35:50;;;;;;;5.72;4.10;;;20.30;75.30;;;;;;5096497;28;20072;-73
2021/06/03 06:38:21;;;;;;;10.93;6.43;;;20.30;75.60;;;;;;5099159;28;20030;-74
2021/06/03 06:40:48;;;;;;;29.30;16.20;;;20.30;75.70;;;;;;5111615;27;20023;-75
2021/06/03 06:43:14;;;;;;;19.02;11.45;;;20.30;76.00;;;;;;5099673;27;20024;-74
2021/06/03 06:45:40;;;;;;;9.25;6.10;;;20.40;75.70;;;;;;5111430;28;20028;-74
2021/06/03 06:48:08;;;;;;;4.75;3.80;;;20.40;76.40;;;;;;5123897;27;20027;-73
2021/06/03 06:50:36;;;;;;;4.18;3.08;;;20.30;75.80;;;;;;5103773;28;20028;-74
2021/06/03 06:53:04;;;;;;;4.55;2.67;;;20.30;75.80;;;;;;5113149;27;20468;-75
2021/06/03 06:55:30;;;;;;;5.07;3.13;;;20.30;76.40;;;;;;5118094;27;20102;-74
2021/06/03 06:57:55;;;;;;;3.08;2.78;;;20.40;76.90;;;;;;5108982;28;20111;-73
2021/06/03 07:00:23;;;;;;;3.00;2.53;;;20.40;76.50;;;;;;5095826;28;20406;-73
2021/06/03 07:02:49;;;;;;;4.70;2.63;;;20.50;76.70;;;;;;5111517;27;20118;-73
2021/06/03 07:05:15;;;;;;;3.95;2.80;;;20.60;76.40;;;;;;5098989;27;20023;-73
2021/06/03 07:07:42;;;;;;;4.93;2.92;;;20.60;76.00;;;;;;5129247;27;20071;-73
2021/06/03 07:10:09;;;;;;;5.45;2.78;;;20.70;75.80;;;;;;5123708;27;20019;-75
2021/06/03 07:12:35;;;;;;;4.85;2.42;;;20.80;75.40;;;;;;5103196;28;20024;-74
2021/06/03 07:15:01;;;;;;;3.60;2.60;;;20.80;75.10;;;;;;5112965;27;20463;-73
2021/06/03 07:17:27;;;;;;;4.80;2.50;;;20.90;75.60;;;;;;5099036;27;20030;-75
2021/06/03 07:19:53;;;;;;;4.47;2.70;;;20.90;75.30;;;;;;5108980;28;20031;-73
2021/06/03 07:22:19;;;;;;;3.55;2.58;;;21.00;75.10;;;;;;5124664;27;20027;-74
2021/06/03 07:24:45;;;;;;;3.53;2.85;;;21.10;75.20;;;;;;5119494;27;20388;-73
2021/06/03 07:27:12;;;;;;;7.55;2.70;;;21.20;75.20;;;;;;5130544;27;20110;-74
2021/06/03 07:29:38;;;;;;;3.42;2.50;;;21.30;74.10;;;;;;5095954;28;20026;-74
2021/06/03 07:32:04;;;;;;;5.25;2.55;;;21.40;74.10;;;;;;5123011;27;20057;-74
2021/06/03 07:34:30;;;;;;;3.22;2.33;;;21.50;74.50;;;;;;5102468;28;20081;-75
2021/06/03 07:36:56;;;;;;;2.58;2.25;;;21.50;74.10;;;;;;5111871;27;20031;-74
2021/06/03 07:39:22;;;;;;;3.17;2.33;;;21.60;72.80;;;;;;5116656;27;20050;-74
2021/06/03 07:41:49;;;;;;;4.43;2.00;;;21.60;71.90;;;;;;5109218;28;20570;-74
2021/06/03 07:44:15;;;;;;;2.95;2.35;;;21.70;71.60;;;;;;5105245;27;20073;-75
2021/06/03 07:46:41;;;;;;;3.05;2.47;;;21.80;71.50;;;;;;5101863;28;20441;-75
2021/06/03 07:49:07;;;;;;;3.58;2.28;;;21.90;71.50;;;;;;5130637;27;20027;-75
2021/06/03 07:51:33;;;;;;;2.90;2.10;;;21.80;71.00;;;;;;5117838;27;20019;-74
2021/06/03 07:53:59;;;;;;;34.28;19.85;;;21.90;71.00;;;;;;5107475;28;20035;-74
2021/06/03 07:56:25;;;;;;;5.82;4.25;;;22.00;71.10;;;;;;5124821;27;20027;-73
2021/06/03 07:58:50;;;;;;;6.43;3.90;;;22.10;70.80;;;;;;5100208;28;20118;-73
2021/06/03 08:01:16;;;;;;;4.53;2.80;;;22.10;70.40;;;;;;5096756;27;20028;-73
2021/06/03 08:03:42;;;;;;;3.63;2.38;;;22.20;70.20;;;;;;5109630;28;20027;-73
2021/06/03 08:06:11;;;;;;;3.15;2.53;;;22.20;70.50;;;;;;5104359;27;20035;-73
2021/06/03 08:08:37;;;;;;;6.55;2.33;;;22.30;70.00;;;;;;5102003;28;20055;-74
2021/06/03 08:11:07;;;;;;;4.28;2.40;;;22.40;69.90;;;;;;5130248;27;20077;-74
2021/06/03 08:13:34;;;;;;;4.13;2.17;;;22.40;70.00;;;;;;5099552;27;20027;-74
2021/06/03 08:16:00;;;;;;;12.63;7.70;;;22.40;69.60;;;;;;5106900;28;20035;-74
2021/06/03 08:18:26;;;;;;;5.80;3.70;;;22.40;69.20;;;;;;5124306;27;20106;-73
2021/06/03 08:20:57;;;;;;;8.98;5.35;;;22.30;68.70;;;;;;5099476;28;20597;-73
2021/06/03 08:23:24;;;;;;;3.58;2.40;;;22.30;69.10;;;;;;5110639;28;20479;-73
2021/06/03 08:25:50;;;;;;;3.70;2.20;;;22.30;70.30;;;;;;5101697;27;20464;-72
2021/06/03 08:28:16;;;;;;;4.15;2.20;;;22.30;69.30;;;;;;5103907;28;20023;-74
2021/06/03 08:30:43;;;;;;;6.88;2.33;;;22.40;69.30;;;;;;5094981;28;20030;-75
2021/06/03 08:33:09;;;;;;;3.28;2.10;;;22.40;69.50;;;;;;5110727;27;20031;-75
2021/06/03 08:35:35;;;;;;;3.20;1.98;;;22.40;69.60;;;;;;5099251;27;20030;-75
2021/06/03 08:38:06;;;;;;;5.80;2.22;;;22.50;69.60;;;;;;5106434;28;20035;-73
2021/06/03 08:40:59;;;;;;;3.95;1.95;;;22.50;68.90;;;;;;5106768;27;20027;-74
2021/06/03 08:43:32;;;;;;;3.55;2.40;;;22.50;69.40;;;;;;5111828;28;20023;-74
2021/06/03 08:45:59;;;;;;;2.80;2.20;;;22.50;69.00;;;;;;5106205;28;20039;-74
2021/06/03 08:48:25;;;;;;;2.22;1.90;;;22.40;68.90;;;;;;5105622;28;20080;-74
2021/06/03 08:50:54;;;;;;;4.63;2.05;;;22.50;69.40;;;;;;5099164;28;20020;-74
2021/06/03 08:53:20;;;;;;;3.30;1.92;;;22.50;68.80;;;;;;5128820;28;20027;-75
2021/06/03 08:58:31;;;;;;;2.70;1.45;;;22.50;69.10;;;;;;5119538;28;20129;-73
2021/06/03 09:00:59;;;;;;;3.42;1.50;;;22.60;67.90;;;;;;5094717;28;20073;-75
2021/06/03 09:03:27;;;;;;;1.25;1.15;;;22.70;67.00;;;;;;5110471;28;20041;-76
2021/06/03 09:05:53;;;;;;;1.65;1.40;;;22.70;66.70;;;;;;5101501;28;20022;-76
2021/06/03 09:08:19;;;;;;;1.95;1.25;;;22.60;65.90;;;;;;5103038;28;20059;-75
2021/06/03 09:10:47;;;;;;;1.55;1.30;;;22.70;64.10;;;;;;5109208;28;20428;-76
2021/06/03 09:13:30;;;;;;;1.88;1.48;;;22.70;64.80;;;;;;5097165;28;20024;-75
2021/06/03 09:15:59;;;;;;;3.75;1.52;;;22.70;64.70;;;;;;5106579;28;20024;-76
2021/06/03 09:18:38;;;;;;;1.95;1.45;;;22.70;64.80;;;;;;5105421;28;20031;-75
2021/06/03 09:21:13;;;;;;;1.88;1.50;;;22.80;64.40;;;;;;5116003;28;20110;-75
2021/06/03 09:23:41;;;;;;;2.38;1.50;;;22.80;64.80;;;;;;5108752;28;20400;-75
2021/06/03 09:26:10;;;;;;;1.73;1.60;;;22.80;64.40;;;;;;5103777;28;20027;-75
2021/06/03 09:28:44;;;;;;;77.00;37.15;;;22.80;65.60;;;;;;5101052;28;20031;-73
2021/06/03 09:31:25;;;;;;;35.47;17.40;;;22.90;65.50;;;;;;5113333;28;20109;-75
2021/06/03 09:33:54;;;;;;;9.15;4.50;;;22.90;65.20;;;;;;5107344;28;20555;-74
2021/06/03 09:36:42;;;;;;;4.20;2.53;;;22.90;66.10;;;;;;5104406;28;20108;-75
2021/06/03 09:39:31;;;;;;;3.58;2.20;;;23.00;65.40;;;;;;5097358;28;20445;-76
2021/06/03 09:42:01;;;;;;;5.97;2.10;;;23.00;64.90;;;;;;5106538;28;20027;-75
2021/06/03 09:44:31;;;;;;;4.35;2.00;;;23.00;65.10;;;;;;5105454;28;20023;-75
2021/06/03 09:47:08;;;;;;;40.20;21.05;;;23.10;64.50;;;;;;5098008;28;20036;-74
2021/06/03 09:49:40;;;;;;;16.70;10.07;;;23.10;65.20;;;;;;5083127;28;20028;-75
2021/06/03 09:52:17;;;;;;;4.03;2.80;;;23.20;64.70;;;;;;5105363;28;20020;-74
2021/06/03 09:54:56;;;;;;;2.60;1.85;;;23.20;64.90;;;;;;5107919;28;20124;-74
2021/06/03 09:57:29;;;;;;;3.28;2.05;;;23.20;65.00;;;;;;5099470;27;20034;-74
2021/06/03 10:00:06;;;;;;;2.60;1.83;;;23.20;64.90;;;;;;5128607;27;20055;-74
2021/06/03 10:02:33;;;;;;;2.88;1.50;;;23.30;63.90;;;;;;5096926;28;20034;-75
2021/06/03 10:04:59;;;;;;;17.15;9.60;;;23.40;63.70;;;;;;5114074;27;20027;-74
2021/06/03 10:07:30;;;;;;;11.85;7.07;;;23.40;63.70;;;;;;5118615;27;20083;-74
2021/06/03 10:10:08;;;;;;;3.03;2.10;;;23.40;63.30;;;;;;5110049;28;20024;-74
2021/06/03 10:12:37;;;;;;;3.83;1.83;;;23.50;62.50;;;;;;5110372;27;20031;-73
2021/06/03 10:15:06;;;;;;;1.73;1.42;;;23.50;62.30;;;;;;5100718;27;20504;-74
2021/06/03 10:17:34;;;;;;;3.28;1.70;;;23.50;62.90;;;;;;5112396;28;20024;-74
2021/06/03 10:20:07;;;;;;;2.83;1.60;;;23.60;62.50;;;;;;5105560;27;20118;-73
2021/06/03 10:22:35;;;;;;;1.55;1.30;;;23.60;62.90;;;;;;5103908;28;20076;-73
2021/06/03 10:25:09;;;;;;;2.17;1.40;;;23.60;63.40;;;;;;5132445;27;20058;-73
2021/06/03 10:28:06;;;;;;;3.58;1.40;;;23.60;62.80;;;;;;5101920;27;20031;-74
2021/06/03 10:30:39;;;;;;;3.15;1.50;;;23.70;62.70;;;;;;5103029;28;20127;-73
2021/06/03 10:33:13;;;;;;;1.80;1.30;;;23.70;62.70;;;;;;5113739;27;20055;-74
2021/06/03 10:35:41;;;;;;;2.47;1.33;;;23.80;61.90;;;;;;5102213;27;20019;-73
2021/06/03 10:38:08;;;;;;;12.95;8.98;;;23.80;61.10;;;;;;5107819;28;20137;-74
2021/06/03 10:40:38;;;;;;;9.38;6.20;;;23.90;60.90;;;;;;5109913;27;20023;-73
2021/06/03 10:43:05;;;;;;;1.70;1.60;;;23.90;61.90;;;;;;5100116;28;20582;-73
2021/06/03 10:45:33;;;;;;;2.05;1.63;;;23.90;60.90;;;;;;5130528;27;20043;-74
2021/06/03 10:47:59;;;;;;;2.70;1.80;;;24.00;61.20;;;;;;5123192;27;20031;-75
2021/06/03 10:50:39;;;;;;;3.53;1.60;;;24.00;61.40;;;;;;5104478;28;20479;-75
2021/06/03 10:53:11;;;;;;;1.73;1.52;;;24.00;61.10;;;;;;5131565;27;20031;-75
2021/06/03 10:55:43;;;;;;;3.17;1.45;;;24.10;61.70;;;;;;5101460;27;20464;-75
2021/06/03 10:58:11;;;;;;;2.38;1.70;;;24.20;62.20;;;;;;5106634;28;20055;-74
2021/06/03 11:00:42;;;;;;;2.58;1.75;;;24.30;62.90;;;;;;5096649;28;20380;-74
2021/06/03 11:03:14;;;;;;;1.75;1.50;;;24.40;60.70;;;;;;5113307;27;20030;-73
2021/06/03 11:05:43;;;;;;;3.15;1.60;;;24.50;60.70;;;;;;5101667;27;20023;-73
2021/06/03 11:08:26;;;;;;;1.70;1.60;;;24.50;60.20;;;;;;5106065;28;20382;-74
2021/06/03 11:10:52;;;;;;;2.38;1.55;;;24.50;59.90;;;;;;5111740;27;20357;-74
2021/06/03 11:13:21;;;;;;;2.53;1.58;;;24.50;61.30;;;;;;5098987;27;20042;-75
2021/06/03 11:16:02;;;;;;;3.40;1.75;;;24.70;59.60;;;;;;5109517;28;20026;-75
2021/06/03 11:18:49;;;;;;;3.90;1.83;;;24.90;59.30;;;;;;5107674;27;20039;-75
2021/06/03 11:24:08;;;;;;;2.60;1.83;;;25.10;58.60;;;;;;5125962;27;20491;-75
2021/06/03 11:26:40;;;;;;;2.10;1.88;;;25.10;59.30;;;;;;5108688;27;20027;-75
2021/06/03 11:29:09;;;;;;;;;;;25.10;59.50;;;;;;5099198;27;20024;-74
2021/06/03 11:31:37;;;;;;;2.65;1.60;;;25.20;59.00;;;;;;5100536;27;19903;-74
2021/06/03 11:34:14;;;;;;;10.35;5.50;;;25.40;60.00;;;;;;5107430;28;20024;-73
2021/06/03 11:36:42;;;;;;;6.20;4.50;;;25.50;58.90;;;;;;5109569;27;20064;-74
2021/06/03 11:39:32;;;;;;;4.53;2.67;;;25.60;58.10;;;;;;5099079;27;20024;-74
2021/06/03 11:42:24;;;;;;;2.43;1.70;;;25.60;57.80;;;;;;5126261;27;20034;-73
2021/06/03 11:45:04;;;;;;;2.55;1.50;;;25.60;57.10;;;;;;5110910;27;20029;-74
2021/06/03 11:47:37;;;;;;;1.40;1.30;;;25.60;57.60;;;;;;5082909;27;20031;-75
2021/06/03 11:50:23;;;;;;;2.25;1.38;;;25.80;57.90;;;;;;5107059;28;20268;-75
2021/06/03 11:53:01;;;;;;;1.48;1.30;;;26.00;57.80;;;;;;5112974;28;20498;-76
2021/06/03 11:55:30;;;;;;;1.40;1.30;;;26.10;54.70;;;;;;5081924;27;20456;-75
2021/06/03 11:58:15;;;;;;;3.83;1.45;;;26.20;56.00;;;;;;5126223;27;20026;-75
2021/06/03 12:00:53;;;;;;;2.33;1.20;;;26.30;55.10;;;;;;5095412;28;20040;-75
2021/06/03 12:03:36;;;;;;;2.30;1.45;;;26.40;54.60;;;;;;5129873;27;20023;-75
2021/06/03 12:06:24;;;;;;;2.28;1.55;;;26.50;55.40;;;;;;5103922;27;20023;-76
2021/06/03 12:08:52;;;;;;;2.88;1.65;;;26.40;54.80;;;;;;5118552;27;20476;-75
2021/06/03 12:11:40;;;;;;;1.52;1.42;;;26.40;55.00;;;;;;5129771;27;20023;-76
2021/06/03 12:14:12;;;;;;;1.73;1.42;;;26.60;54.70;;;;;;5104400;27;20027;-76
2021/06/03 12:16:40;;;;;;;93.30;51.60;;;26.70;54.20;;;;;;5101689;28;20034;-74
2021/06/03 12:19:15;;;;;;;4.18;3.35;;;26.80;54.30;;;;;;5130003;27;20031;-75
2021/06/03 12:21:45;;;;;;;3.53;2.58;;;26.80;55.00;;;;;;5100105;27;20107;-74
2021/06/03 12:24:11;;;;;;;2.60;2.30;;;26.70;55.80;;;;;;5104346;28;20044;-74
2021/06/03 12:26:40;;;;;;;2.78;1.90;;;26.80;54.90;;;;;;5108330;27;20031;-75
2021/06/03 12:29:06;;;;;;;2.22;1.63;;;26.90;54.20;;;;;;5097845;28;20384;-75
2021/06/03 12:31:32;;;;;;;2.67;1.23;;;27.20;53.00;;;;;;5098393;27;20079;-75
2021/06/03 12:33:58;;;;;;;5.18;1.33;;;27.20;51.90;;;;;;5107087;28;20030;-74
2021/06/03 12:36:26;;;;;;;1.67;1.38;;;27.20;53.50;;;;;;5123974;27;20027;-75
2021/06/03 12:38:58;;;;;;;1.25;1.15;;;27.40;52.00;;;;;;5099465;28;20032;-75
2021/06/03 12:41:33;;;;;;;4.82;1.70;;;27.60;51.10;;;;;;5128861;27;20015;-75
2021/06/03 12:44:25;;;;;;;1.65;1.27;;;27.80;50.30;;;;;;5121108;27;20026;-75
2021/06/03 12:46:53;;;;;;;3.22;1.30;;;28.00;51.50;;;;;;5099350;28;20431;-75
2021/06/03 12:49:27;;;;;;;2.67;1.50;;;28.20;51.20;;;;;;5129057;27;20019;-75
2021/06/03 12:51:57;;;;;;;2.03;1.58;;;28.30;50.10;;;;;;5101670;27;20019;-74
2021/06/03 12:54:31;;;;;;;2.58;1.40;;;28.60;50.10;;;;;;5102067;28;20055;-76
2021/06/03 12:56:59;;;;;;;2.13;1.40;;;28.70;51.00;;;;;;5110792;28;20035;-76
2021/06/03 12:59:26;;;;;;;1.90;1.52;;;28.80;50.20;;;;;;5094297;28;20432;-76
2021/06/03 13:01:56;;;;;;;1.80;1.52;;;28.90;49.30;;;;;;5101586;28;20475;-76
2021/06/03 13:04:22;;;;;;;3.20;1.15;;;28.70;48.60;;;;;;5121021;28;20128;-75